createdAt,value
2022-07-30T00:00:25.935Z,15.60
2022-07-30T00:02:53.441Z,15.60
2022-07-30T00:05:21.171Z,15.50
2022-07-30T00:07:48.354Z,15.50
2022-07-30T00:10:15.672Z,15.60
2022-07-30T00:12:43.073Z,15.60
2022-07-30T00:15:10.498Z,15.60
2022-07-30T00:17:37.954Z,15.50
2022-07-30T00:20:06.184Z,15.50
2022-07-30T00:22:33.503Z,15.50
2022-07-30T00:25:00.762Z,15.50
2022-07-30T00:27:28.017Z,15.50
2022-07-30T00:29:55.191Z,15.50
2022-07-30T00:32:22.355Z,15.50
2022-07-30T00:34:49.571Z,15.50
2022-07-30T00:37:16.776Z,15.40
2022-07-30T00:39:44.017Z,15.40
2022-07-30T00:42:11.204Z,15.40
2022-07-30T00:44:41.144Z,15.30
2022-07-30T00:47:08.684Z,15.30
2022-07-30T00:49:35.868Z,15.40
2022-07-30T00:52:03.244Z,15.40
2022-07-30T00:54:31.771Z,15.40
2022-07-30T00:56:59.271Z,15.40
2022-07-30T00:59:26.640Z,15.30
2022-07-30T01:01:54.944Z,15.30
2022-07-30T01:04:22.317Z,15.20
2022-07-30T01:06:49.594Z,15.30
2022-07-30T01:09:16.979Z,15.20
2022-07-30T01:11:44.616Z,15.20
2022-07-30T01:14:12.672Z,15.10
2022-07-30T01:16:43.244Z,15.10
2022-07-30T01:19:21.668Z,15.10
2022-07-30T01:22:07.309Z,15.10
2022-07-30T01:24:55.946Z,15.10
2022-07-30T01:27:26.462Z,15.20
2022-07-30T01:29:56.774Z,15.10
2022-07-30T01:32:27.284Z,15.00
2022-07-30T01:34:59.000Z,15.00
2022-07-30T01:37:28.087Z,15.00
2022-07-30T01:39:56.863Z,14.90
2022-07-30T01:42:28.837Z,14.90
2022-07-30T01:44:59.294Z,14.90
2022-07-30T01:47:30.654Z,14.80
2022-07-30T01:50:00.149Z,14.80
2022-07-30T01:52:32.451Z,14.90
2022-07-30T01:55:02.598Z,14.90
2022-07-30T01:57:35.901Z,14.90
2022-07-30T02:00:08.086Z,14.90
2022-07-30T02:02:36.990Z,14.80
2022-07-30T02:05:06.267Z,14.90
2022-07-30T02:07:40.128Z,14.80
2022-07-30T02:10:44.084Z,14.80
2022-07-30T02:13:17.703Z,14.80
2022-07-30T02:16:06.193Z,14.70
2022-07-30T02:18:44.563Z,14.70
2022-07-30T02:21:14.254Z,14.70
2022-07-30T02:23:45.331Z,14.70
2022-07-30T02:26:22.832Z,14.70
2022-07-30T02:28:56.710Z,14.70
2022-07-30T02:31:27.892Z,14.80
2022-07-30T02:34:02.959Z,14.70
2022-07-30T02:36:33.409Z,14.80
2022-07-30T02:39:06.634Z,14.70
2022-07-30T02:41:38.472Z,14.80
2022-07-30T02:44:07.453Z,14.70
2022-07-30T02:46:37.723Z,14.80
2022-07-30T02:49:09.403Z,14.70
2022-07-30T02:51:37.992Z,14.80
2022-07-30T02:54:08.476Z,14.80
2022-07-30T02:56:41.254Z,14.70
2022-07-30T02:59:10.647Z,14.60
2022-07-30T03:01:38.698Z,14.70
2022-07-30T03:04:07.994Z,14.60
2022-07-30T03:06:36.673Z,14.60
2022-07-30T03:09:05.894Z,14.60
2022-07-30T03:11:35.015Z,14.50
2022-07-30T03:14:03.265Z,14.50
2022-07-30T03:16:36.863Z,14.50
2022-07-30T03:19:08.701Z,14.40
2022-07-30T03:21:38.667Z,14.50
2022-07-30T03:24:09.048Z,14.40
2022-07-30T03:26:38.210Z,14.30
2022-07-30T03:29:08.742Z,14.40
2022-07-30T03:31:39.747Z,14.40
2022-07-30T03:34:09.482Z,14.40
2022-07-30T03:36:40.592Z,14.40
2022-07-30T03:39:08.466Z,14.40
2022-07-30T03:41:38.527Z,14.40
2022-07-30T03:44:07.849Z,14.40
2022-07-30T03:46:37.994Z,14.30
2022-07-30T03:49:06.222Z,14.40
2022-07-30T03:51:36.922Z,14.40
2022-07-30T03:54:04.862Z,14.30
2022-07-30T03:56:33.803Z,14.30
2022-07-30T03:59:01.971Z,14.30
2022-07-30T04:01:29.322Z,14.30
2022-07-30T04:04:04.522Z,14.30
2022-07-30T04:06:31.881Z,14.40
2022-07-30T04:08:59.048Z,14.30
2022-07-30T04:11:41.722Z,14.20
2022-07-30T04:14:09.754Z,14.30
2022-07-30T04:17:02.888Z,14.30
2022-07-30T04:19:43.696Z,14.30
2022-07-30T04:22:15.448Z,14.30
2022-07-30T04:24:45.203Z,14.40
2022-07-30T04:27:12.862Z,14.40
2022-07-30T04:29:41.426Z,14.30
2022-07-30T04:32:09.617Z,14.40
2022-07-30T04:34:37.325Z,14.30
2022-07-30T04:37:04.822Z,14.30
2022-07-30T04:39:32.123Z,14.40
2022-07-30T04:41:59.645Z,14.40
2022-07-30T04:44:26.813Z,14.50
2022-07-30T04:46:54.356Z,14.50
2022-07-30T04:49:23.378Z,14.50
2022-07-30T04:51:52.587Z,14.50
2022-07-30T04:54:24.367Z,14.50
2022-07-30T04:56:54.793Z,14.40
2022-07-30T04:59:27.443Z,14.50
2022-07-30T05:01:59.550Z,14.60
2022-07-30T05:04:29.096Z,14.50
2022-07-30T05:06:58.071Z,14.60
2022-07-30T05:09:26.573Z,14.60
2022-07-30T05:11:55.844Z,14.70
2022-07-30T05:14:24.864Z,14.80
2022-07-30T05:16:53.202Z,14.80
2022-07-30T05:19:21.465Z,14.80
2022-07-30T05:21:48.656Z,14.80
2022-07-30T05:24:15.974Z,14.80
2022-07-30T05:26:43.739Z,14.80
2022-07-30T05:29:19.419Z,14.80
2022-07-30T05:31:47.475Z,14.80
2022-07-30T05:34:15.185Z,14.80
2022-07-30T05:36:42.415Z,14.80
2022-07-30T05:39:09.653Z,14.70
2022-07-30T05:41:37.014Z,14.60
2022-07-30T05:44:07.871Z,14.60
2022-07-30T05:46:35.641Z,14.60
2022-07-30T05:49:03.262Z,14.60
2022-07-30T05:51:30.416Z,14.50
2022-07-30T05:53:57.727Z,14.50
2022-07-30T05:56:25.001Z,14.50
2022-07-30T05:58:52.283Z,14.50
2022-07-30T06:01:19.557Z,14.50
2022-07-30T06:03:46.807Z,14.50
2022-07-30T06:06:14.081Z,14.60
2022-07-30T06:08:41.372Z,14.60
2022-07-30T06:11:08.819Z,14.60
2022-07-30T06:13:36.996Z,14.50
2022-07-30T06:16:05.152Z,14.70
2022-07-30T06:18:32.573Z,14.70
2022-07-30T06:20:59.846Z,14.80
2022-07-30T06:23:27.415Z,14.80
2022-07-30T06:25:54.648Z,14.90
2022-07-30T06:28:37.009Z,14.80
2022-07-30T06:31:05.510Z,14.80
2022-07-30T06:33:33.290Z,14.90
2022-07-30T06:36:00.526Z,15.00
2022-07-30T06:38:29.098Z,15.00
2022-07-30T06:41:02.372Z,14.90
2022-07-30T06:43:30.396Z,15.10
2022-07-30T06:45:57.593Z,15.20
2022-07-30T06:48:24.843Z,15.20
2022-07-30T06:50:52.131Z,15.30
2022-07-30T06:53:19.290Z,15.40
2022-07-30T06:55:46.460Z,15.50
2022-07-30T06:58:13.610Z,15.50
2022-07-30T07:00:40.819Z,15.50
2022-07-30T07:03:11.681Z,15.60
2022-07-30T07:05:39.591Z,15.60
2022-07-30T07:08:06.850Z,15.60
2022-07-30T07:10:34.346Z,15.60
2022-07-30T07:13:01.536Z,15.70
2022-07-30T07:15:36.292Z,15.70
2022-07-30T07:18:05.837Z,15.60
2022-07-30T07:20:34.820Z,15.60
2022-07-30T07:23:08.717Z,15.70
2022-07-30T07:25:37.005Z,15.60
2022-07-30T07:28:12.522Z,15.60
2022-07-30T07:30:42.146Z,15.70
2022-07-30T07:33:10.036Z,15.70
2022-07-30T07:35:45.579Z,15.70
2022-07-30T07:38:18.570Z,15.70
2022-07-30T07:40:47.342Z,15.80
2022-07-30T07:43:15.544Z,15.90
2022-07-30T07:45:43.697Z,15.90
2022-07-30T07:48:11.606Z,16.00
2022-07-30T07:50:39.070Z,16.00
2022-07-30T07:53:15.949Z,16.00
2022-07-30T07:55:43.177Z,16.10
2022-07-30T07:58:11.365Z,16.20
2022-07-30T08:00:38.631Z,16.20
2022-07-30T08:03:06.079Z,16.30
2022-07-30T08:05:56.899Z,16.40
2022-07-30T08:08:20.707Z,16.40
2022-07-30T08:10:48.310Z,16.50
2022-07-30T08:13:49.017Z,16.50
2022-07-30T08:16:03.345Z,16.40
2022-07-30T08:18:30.579Z,16.40
2022-07-30T08:20:57.784Z,16.30
2022-07-30T08:23:42.518Z,16.30
2022-07-30T08:26:10.569Z,16.40
2022-07-30T08:28:37.814Z,16.40
2022-07-30T08:31:05.134Z,16.40
2022-07-30T08:33:32.326Z,16.50
2022-07-30T08:36:04.260Z,16.50
2022-07-30T08:38:39.500Z,16.60
2022-07-30T08:41:07.135Z,16.60
2022-07-30T08:43:37.088Z,16.70
2022-07-30T08:46:09.770Z,16.70
2022-07-30T08:48:38.007Z,16.80
2022-07-30T08:51:05.973Z,16.90
2022-07-30T08:53:35.114Z,17.00
2022-07-30T08:56:03.811Z,17.10
2022-07-30T08:58:34.300Z,17.10
2022-07-30T09:01:02.575Z,17.10
2022-07-30T09:03:30.457Z,17.10
2022-07-30T09:05:57.755Z,17.20
2022-07-30T09:08:25.213Z,17.20
2022-07-30T09:10:53.177Z,17.20
2022-07-30T09:13:33.546Z,17.30
2022-07-30T09:16:01.626Z,17.30
2022-07-30T09:18:40.855Z,17.40
2022-07-30T09:21:23.097Z,17.50
2022-07-30T09:23:59.472Z,17.60
2022-07-30T09:26:28.106Z,17.70
2022-07-30T09:29:14.542Z,17.80
2022-07-30T09:32:06.526Z,17.80
2022-07-30T09:34:36.224Z,17.90
2022-07-30T09:37:18.426Z,17.90
2022-07-30T09:39:59.101Z,18.10
2022-07-30T09:42:29.390Z,18.10
2022-07-30T09:45:14.084Z,18.30
2022-07-30T09:47:45.977Z,18.40
2022-07-30T09:50:29.688Z,18.60
2022-07-30T09:53:09.670Z,18.70
2022-07-30T09:55:41.828Z,18.80
2022-07-30T10:01:00.334Z,18.80
2022-07-30T10:03:34.289Z,18.90
2022-07-30T10:06:03.078Z,18.80
2022-07-30T10:08:48.020Z,18.80
2022-07-30T10:11:22.749Z,18.70
2022-07-30T10:13:58.788Z,18.80
2022-07-30T10:16:30.551Z,18.80
2022-07-30T10:18:59.177Z,18.80
2022-07-30T10:21:28.603Z,18.90
2022-07-30T10:24:00.689Z,19.00
2022-07-30T10:26:33.245Z,19.00
2022-07-30T10:29:03.187Z,19.00
2022-07-30T10:31:48.364Z,18.90
2022-07-30T10:34:23.631Z,19.10
2022-07-30T10:37:01.797Z,19.20
2022-07-30T10:39:47.124Z,19.20
2022-07-30T10:42:46.214Z,19.20
2022-07-30T10:45:24.725Z,19.20
2022-07-30T10:47:55.266Z,19.00
2022-07-30T10:50:24.829Z,19.00
2022-07-30T10:52:57.950Z,19.00
2022-07-30T10:55:38.628Z,19.00
2022-07-30T10:58:14.373Z,19.00
2022-07-30T11:00:52.247Z,19.00
2022-07-30T11:03:23.567Z,19.00
2022-07-30T11:06:24.327Z,19.10
2022-07-30T11:08:52.387Z,19.00
2022-07-30T11:11:59.274Z,19.00
2022-07-30T11:14:11.959Z,19.10
2022-07-30T11:16:40.164Z,19.40
2022-07-30T11:19:56.746Z,19.50
2022-07-30T11:22:29.959Z,19.50
2022-07-30T11:24:58.355Z,19.60
2022-07-30T11:27:46.481Z,19.70
2022-07-30T11:33:15.198Z,20.50
2022-07-30T11:35:42.811Z,20.50
2022-07-30T11:38:22.491Z,20.30
2022-07-30T11:40:49.696Z,20.10
2022-07-30T11:43:35.167Z,20.10
2022-07-30T11:46:16.346Z,20.00
2022-07-30T11:49:00.520Z,19.90
2022-07-30T11:51:27.943Z,19.90
2022-07-30T11:54:08.104Z,20.00
2022-07-30T11:56:35.360Z,20.00
2022-07-30T11:59:07.231Z,19.90
2022-07-30T12:01:36.013Z,19.90
2022-07-30T12:04:07.676Z,19.80
2022-07-30T12:06:44.094Z,19.90
2022-07-30T12:09:11.554Z,19.80
2022-07-30T12:11:38.754Z,19.90
2022-07-30T12:14:06.097Z,19.90
2022-07-30T12:16:34.307Z,19.90
2022-07-30T12:19:10.844Z,19.90
2022-07-30T12:21:38.219Z,20.50
2022-07-30T12:26:35.128Z,21.60
2022-07-30T12:29:06.269Z,21.90
2022-07-30T12:31:34.145Z,22.10
2022-07-30T12:34:05.924Z,22.00
2022-07-30T12:36:35.685Z,22.00
2022-07-30T12:39:05.300Z,21.90
2022-07-30T12:42:02.024Z,21.60
2022-07-30T12:44:43.464Z,21.40
2022-07-30T12:47:31.347Z,21.70
2022-07-30T12:50:01.681Z,22.10
2022-07-30T12:55:04.032Z,23.00
2022-07-30T12:57:55.932Z,23.40
2022-07-30T13:00:31.528Z,23.50
2022-07-30T13:02:59.400Z,23.70
2022-07-30T13:05:46.370Z,23.80
2022-07-30T13:10:59.304Z,24.10
2022-07-30T13:13:28.161Z,24.30
2022-07-30T13:16:04.068Z,24.30
2022-07-30T13:18:33.856Z,24.40
2022-07-30T13:21:02.808Z,24.40
2022-07-30T13:23:30.086Z,24.50
2022-07-30T13:25:58.258Z,24.70
2022-07-30T13:28:26.220Z,24.70
2022-07-30T13:30:53.474Z,24.70
2022-07-30T13:33:20.643Z,24.80
2022-07-30T13:35:47.970Z,24.70
2022-07-30T13:38:15.330Z,24.80
2022-07-30T13:40:43.027Z,24.90
2022-07-30T13:43:10.610Z,25.00
2022-07-30T13:45:37.902Z,24.80
2022-07-30T13:48:05.384Z,24.70
2022-07-30T13:50:32.679Z,25.00
2022-07-30T13:53:02.498Z,24.60
2022-07-30T13:55:30.653Z,24.50
2022-07-30T13:57:58.251Z,24.80
2022-07-30T14:00:25.544Z,25.10
2022-07-30T14:02:52.747Z,25.40
2022-07-30T14:05:19.941Z,25.60
2022-07-30T14:07:47.056Z,25.80
2022-07-30T14:10:14.297Z,26.00
2022-07-30T14:12:41.482Z,26.20
2022-07-30T14:15:09.497Z,26.10
2022-07-30T14:17:36.719Z,26.30
2022-07-30T14:20:05.389Z,26.00
2022-07-30T14:22:32.637Z,25.70
2022-07-30T14:24:59.853Z,25.70
2022-07-30T14:27:27.049Z,25.90
2022-07-30T14:29:54.222Z,25.90
2022-07-30T14:32:21.425Z,26.00
2022-07-30T14:34:50.982Z,26.20
2022-07-30T14:37:18.238Z,26.20
2022-07-30T14:39:45.448Z,26.50
2022-07-30T14:42:12.733Z,26.50
2022-07-30T14:47:08.177Z,26.90
2022-07-30T14:49:35.848Z,26.90
2022-07-30T14:52:03.169Z,27.10
2022-07-30T14:54:31.194Z,27.30
2022-07-30T14:57:12.238Z,26.80
2022-07-30T14:59:40.179Z,26.00
2022-07-30T15:02:10.671Z,25.60
2022-07-30T15:04:38.361Z,25.60
2022-07-30T15:07:06.919Z,25.70
2022-07-30T15:09:34.241Z,25.40
2022-07-30T15:12:09.930Z,24.80
2022-07-30T15:14:41.044Z,24.10
2022-07-30T15:17:08.698Z,23.60
2022-07-30T15:19:35.907Z,23.40
2022-07-30T15:22:03.602Z,23.30
2022-07-30T15:24:31.982Z,23.20
2022-07-30T15:26:59.849Z,23.10
2022-07-30T15:29:27.129Z,22.90
2022-07-30T15:31:54.519Z,22.70
2022-07-30T15:34:21.786Z,22.60
2022-07-30T15:36:48.983Z,22.50
2022-07-30T15:39:16.378Z,22.50
2022-07-30T15:41:43.783Z,22.90
2022-07-30T15:44:11.384Z,23.40
2022-07-30T15:46:38.695Z,23.80
2022-07-30T15:49:05.948Z,23.40
2022-07-30T15:51:33.507Z,23.70
2022-07-30T15:54:00.748Z,23.40
2022-07-30T15:56:28.077Z,23.10
2022-07-30T15:58:55.690Z,23.40
2022-07-30T16:01:23.034Z,23.10
2022-07-30T16:03:50.308Z,22.60
2022-07-30T16:06:17.501Z,22.50
2022-07-30T16:08:44.705Z,22.80
2022-07-30T16:11:11.918Z,22.70
2022-07-30T16:13:39.074Z,22.60
2022-07-30T16:16:06.510Z,23.20
2022-07-30T16:18:33.726Z,23.60
2022-07-30T16:21:01.255Z,23.50
2022-07-30T16:23:36.554Z,23.60
2022-07-30T16:26:05.317Z,23.20
2022-07-30T16:28:32.731Z,23.10
2022-07-30T16:30:59.964Z,23.10
2022-07-30T16:33:27.148Z,23.00
2022-07-30T16:35:54.333Z,22.80
2022-07-30T16:38:22.317Z,22.50
2022-07-30T16:40:49.923Z,22.30
2022-07-30T16:43:19.914Z,22.10
2022-07-30T16:45:48.453Z,21.80
2022-07-30T16:48:15.856Z,21.80
2022-07-30T16:50:43.933Z,21.50
2022-07-30T16:53:14.229Z,21.50
2022-07-30T16:55:43.484Z,21.40
2022-07-30T16:58:11.532Z,21.20
2022-07-30T17:00:39.750Z,21.10
2022-07-30T17:03:07.466Z,21.00
2022-07-30T17:05:34.997Z,20.90
2022-07-30T17:08:02.239Z,20.80
2022-07-30T17:10:29.704Z,20.70
2022-07-30T17:12:57.650Z,20.60
2022-07-30T17:15:32.080Z,20.30
2022-07-30T17:18:01.837Z,20.20
2022-07-30T17:20:31.479Z,19.80
2022-07-30T17:22:58.750Z,19.90
2022-07-30T17:25:26.855Z,20.00
2022-07-30T17:27:56.104Z,19.80
2022-07-30T17:30:24.460Z,19.90
2022-07-30T17:32:52.769Z,20.00
2022-07-30T17:35:20.444Z,19.80
2022-07-30T17:37:47.934Z,19.70
2022-07-30T17:40:29.079Z,19.70
2022-07-30T17:43:00.012Z,20.00
2022-07-30T17:45:27.193Z,20.10
2022-07-30T17:47:54.412Z,20.10
2022-07-30T17:50:21.762Z,20.00
2022-07-30T17:52:49.012Z,19.90
2022-07-30T17:55:16.169Z,19.90
2022-07-30T17:57:43.388Z,19.80
2022-07-30T18:00:11.357Z,19.60
2022-07-30T18:02:38.487Z,19.50
2022-07-30T18:05:06.203Z,19.20
2022-07-30T18:07:33.424Z,19.20
2022-07-30T18:10:00.707Z,18.80
2022-07-30T18:12:28.024Z,18.60
2022-07-30T18:14:55.564Z,18.40
2022-07-30T18:19:50.537Z,18.00
2022-07-30T18:22:22.264Z,17.80
2022-07-30T18:24:57.844Z,17.70
2022-07-30T18:27:25.521Z,17.60
2022-07-30T18:29:52.704Z,17.50
2022-07-30T18:32:19.958Z,17.40
2022-07-30T18:34:47.179Z,17.30
2022-07-30T18:37:14.491Z,17.20
2022-07-30T18:39:41.748Z,17.10
2022-07-30T18:42:29.212Z,17.10
2022-07-30T18:44:56.509Z,17.10
2022-07-30T18:47:23.758Z,17.00
2022-07-30T18:49:51.349Z,16.90
2022-07-30T18:52:18.592Z,17.00
2022-07-30T18:54:45.861Z,16.80
2022-07-30T18:57:14.589Z,16.90
2022-07-30T18:59:42.165Z,17.00
2022-07-30T19:02:09.525Z,16.90
2022-07-30T19:04:36.976Z,16.90
2022-07-30T19:07:04.227Z,16.90
2022-07-30T19:09:31.626Z,16.80
2022-07-30T19:11:59.034Z,16.90
2022-07-30T19:14:26.229Z,17.00
2022-07-30T19:16:53.385Z,17.20
2022-07-30T19:19:26.955Z,17.10
2022-07-30T19:21:54.532Z,17.10
2022-07-30T19:24:21.846Z,17.00
2022-07-30T19:26:50.088Z,16.90
2022-07-30T19:29:17.362Z,16.90
2022-07-30T19:31:44.689Z,16.90
2022-07-30T19:34:11.889Z,16.90
2022-07-30T19:36:39.353Z,16.70
2022-07-30T19:41:54.402Z,16.60
2022-07-30T19:44:21.627Z,16.50
2022-07-30T19:46:48.946Z,16.50
2022-07-30T19:49:19.828Z,16.50
2022-07-30T19:52:09.925Z,16.50
2022-07-30T19:54:36.883Z,16.30
2022-07-30T19:57:04.709Z,16.30
2022-07-30T19:59:45.587Z,16.30
2022-07-30T20:02:19.375Z,16.20
2022-07-30T20:04:51.121Z,16.20
2022-07-30T20:07:18.557Z,16.20
2022-07-30T20:09:48.449Z,16.20
2022-07-30T20:12:16.141Z,16.10
2022-07-30T20:14:44.517Z,15.90
2022-07-30T20:17:11.872Z,15.90
2022-07-30T20:19:39.109Z,15.90
2022-07-30T20:22:16.513Z,15.70
2022-07-30T20:24:45.362Z,15.80
2022-07-30T20:27:37.183Z,15.70
2022-07-30T20:29:59.886Z,15.60
2022-07-30T20:32:28.176Z,15.60
2022-07-30T20:34:56.497Z,15.40
2022-07-30T20:37:23.653Z,15.20
2022-07-30T20:39:55.588Z,15.10
2022-07-30T20:42:24.227Z,15.20
2022-07-30T20:44:52.395Z,15.20
2022-07-30T20:47:34.329Z,15.10
2022-07-30T20:50:03.257Z,15.00
2022-07-30T20:52:30.481Z,14.90
2022-07-30T20:54:57.780Z,14.90
2022-07-30T20:57:56.783Z,14.90
2022-07-30T21:00:12.765Z,15.10
2022-07-30T21:02:39.983Z,15.10
2022-07-30T21:05:07.865Z,15.10
2022-07-30T21:07:36.703Z,15.10
2022-07-30T21:10:05.093Z,15.00
2022-07-30T21:12:34.560Z,15.10
2022-07-30T21:15:01.772Z,15.20
2022-07-30T21:17:28.967Z,14.90
2022-07-30T21:19:57.462Z,15.10
2022-07-30T21:22:24.661Z,14.90
2022-07-30T21:24:51.900Z,14.90
2022-07-30T21:27:19.211Z,14.80
2022-07-30T21:29:46.908Z,14.90
2022-07-30T21:32:15.111Z,14.80
2022-07-30T21:34:46.335Z,14.90
2022-07-30T21:37:15.691Z,14.80
2022-07-30T21:39:43.218Z,14.80
2022-07-30T21:42:11.375Z,14.90
2022-07-30T21:44:58.884Z,14.70
2022-07-30T21:47:26.179Z,14.60
2022-07-30T21:49:53.365Z,14.60
2022-07-30T21:52:20.556Z,14.50
2022-07-30T21:54:48.655Z,14.50
2022-07-30T21:59:55.253Z,14.30
2022-07-30T22:02:25.984Z,14.40
2022-07-30T22:04:55.431Z,14.30
2022-07-30T22:07:22.734Z,14.40
2022-07-30T22:09:49.931Z,14.30
2022-07-30T22:12:18.111Z,14.20
2022-07-30T22:14:49.318Z,14.20
2022-07-30T22:17:23.670Z,14.20
2022-07-30T22:20:08.780Z,14.20
2022-07-30T22:22:39.131Z,14.20
2022-07-30T22:25:09.794Z,14.10
2022-07-30T22:27:56.675Z,14.10
2022-07-30T22:30:26.989Z,14.00
2022-07-30T22:32:55.534Z,14.00
2022-07-30T22:35:32.487Z,13.90
2022-07-30T22:38:02.924Z,14.00
2022-07-30T22:40:31.077Z,14.00
2022-07-30T22:42:58.539Z,14.00
2022-07-30T22:45:48.150Z,14.00
2022-07-30T22:48:13.143Z,14.00
2022-07-30T22:50:40.615Z,14.00
2022-07-30T22:54:09.923Z,14.00
2022-07-30T22:55:55.634Z,14.10
2022-07-30T22:58:26.227Z,14.20
2022-07-30T23:01:06.725Z,14.00
2022-07-30T23:03:34.264Z,13.90
2022-07-30T23:06:01.509Z,13.80
2022-07-30T23:08:30.967Z,13.70
2022-07-30T23:10:59.048Z,13.70
2022-07-30T23:12:16.841Z,16.70
2022-07-30T23:13:27.782Z,13.70
2022-07-30T23:15:54.973Z,13.70
2022-07-30T23:18:22.180Z,13.70
2022-07-30T23:20:49.384Z,13.60
2022-07-30T23:23:16.616Z,13.50
2022-07-30T23:25:46.272Z,13.60
2022-07-30T23:28:13.626Z,13.50
2022-07-30T23:30:40.942Z,13.40
2022-07-30T23:33:08.140Z,13.40
2022-07-30T23:35:35.340Z,13.30
2022-07-30T23:38:02.619Z,13.30
2022-07-30T23:40:29.948Z,13.20
2022-07-30T23:42:57.172Z,13.30
2022-07-30T23:45:24.397Z,13.30
2022-07-30T23:48:01.843Z,13.30
2022-07-30T23:50:32.790Z,13.10
2022-07-30T23:53:03.341Z,13.10
2022-07-30T23:55:32.167Z,13.00
2022-07-30T23:57:59.536Z,12.90
